createdAt,value
2019-05-09T00:03:24.175Z,11.30
2019-05-09T00:08:29.239Z,11.30
2019-05-09T00:13:34.272Z,11.30
2019-05-09T00:18:39.280Z,11.30
2019-05-09T00:23:44.291Z,11.30
2019-05-09T00:28:53.228Z,11.40
2019-05-09T00:33:59.359Z,11.40
2019-05-09T00:39:06.141Z,11.30
2019-05-09T00:44:15.495Z,11.30
2019-05-09T00:49:23.522Z,11.30
2019-05-09T00:54:28.819Z,11.20
2019-05-09T00:59:33.817Z,11.30
2019-05-09T01:04:39.095Z,11.20
2019-05-09T01:09:44.139Z,11.20
2019-05-09T01:14:49.215Z,11.20
2019-05-09T01:19:54.235Z,11.20
2019-05-09T01:24:59.272Z,11.10
2019-05-09T01:30:05.113Z,11.20
2019-05-09T01:35:10.240Z,11.10
2019-05-09T01:40:15.291Z,11.10
2019-05-09T01:45:20.339Z,11.10
2019-05-09T01:50:25.332Z,11.10
2019-05-09T01:55:48.417Z,11.10
2019-05-09T02:00:54.000Z,11.00
2019-05-09T02:05:59.267Z,11.00
2019-05-09T02:11:04.635Z,11.00
2019-05-09T02:16:11.384Z,11.00
2019-05-09T02:21:16.439Z,11.00
2019-05-09T02:26:23.856Z,11.00
2019-05-09T02:31:28.228Z,10.90
2019-05-09T02:36:33.179Z,10.90
2019-05-09T02:41:39.013Z,11.00
2019-05-09T02:46:58.794Z,11.00
2019-05-09T02:52:04.254Z,10.90
2019-05-09T02:57:09.737Z,10.90
2019-05-09T03:02:19.752Z,10.90
2019-05-09T03:07:42.668Z,10.90
2019-05-09T03:12:50.265Z,10.90
2019-05-09T03:17:54.812Z,10.80
2019-05-09T03:22:59.782Z,10.80
2019-05-09T03:28:09.843Z,10.80
2019-05-09T03:33:15.092Z,10.80
2019-05-09T03:38:20.076Z,10.80
2019-05-09T03:43:27.312Z,10.80
2019-05-09T03:48:33.494Z,10.80
2019-05-09T03:53:38.523Z,10.80
2019-05-09T03:58:43.575Z,10.80
2019-05-09T04:03:48.559Z,10.80
2019-05-09T04:08:54.607Z,10.90
2019-05-09T04:14:20.967Z,10.90
2019-05-09T04:19:24.602Z,10.90
2019-05-09T04:24:30.566Z,10.90
2019-05-09T04:29:37.397Z,10.90
2019-05-09T04:34:43.196Z,10.90
2019-05-09T04:39:48.189Z,11.00
2019-05-09T04:44:57.302Z,11.00
2019-05-09T04:50:01.498Z,11.10
2019-05-09T04:55:07.935Z,11.10
2019-05-09T05:00:14.722Z,11.10
2019-05-09T05:05:19.779Z,11.10
2019-05-09T05:10:24.883Z,11.20
2019-05-09T05:15:29.848Z,11.30
2019-05-09T05:20:34.904Z,11.30
2019-05-09T05:25:39.860Z,11.40
2019-05-09T05:36:01.440Z,11.40
2019-05-09T05:41:08.001Z,11.30
2019-05-09T05:46:31.379Z,11.40
2019-05-09T05:51:51.363Z,11.30
2019-05-09T05:56:57.851Z,11.30
2019-05-09T06:02:03.289Z,11.30
2019-05-09T06:07:08.379Z,11.30
2019-05-09T06:12:14.534Z,11.30
2019-05-09T06:17:21.364Z,11.30
2019-05-09T06:22:28.012Z,11.30
2019-05-09T06:27:33.203Z,11.30
2019-05-09T06:32:38.582Z,11.30
2019-05-09T06:37:43.795Z,11.30
2019-05-09T06:42:49.078Z,11.30
2019-05-09T06:47:54.040Z,11.30
2019-05-09T06:52:59.075Z,11.30
2019-05-09T06:58:21.854Z,11.30
2019-05-09T07:03:40.311Z,11.20
2019-05-09T07:09:03.069Z,11.20
2019-05-09T07:14:09.895Z,11.30
2019-05-09T07:19:17.264Z,11.20
2019-05-09T07:24:22.239Z,11.30
2019-05-09T07:29:28.940Z,11.20
2019-05-09T07:34:41.161Z,11.30
2019-05-09T07:39:48.320Z,11.30
2019-05-09T07:44:52.722Z,11.30
2019-05-09T07:49:58.537Z,11.30
2019-05-09T07:55:04.956Z,11.30
2019-05-09T08:00:10.376Z,11.20
2019-05-09T08:05:18.430Z,11.30
2019-05-09T08:10:23.544Z,11.30
2019-05-09T08:15:28.588Z,11.30
2019-05-09T08:20:33.608Z,11.40
2019-05-09T08:25:38.729Z,11.40
2019-05-09T08:30:43.851Z,11.40
2019-05-09T08:35:52.511Z,11.30
2019-05-09T08:41:09.694Z,11.20
2019-05-09T08:46:14.982Z,11.10
2019-05-09T08:51:37.761Z,11.00
2019-05-09T08:56:34.156Z,11.00
2019-05-09T09:02:01.692Z,11.00
2019-05-09T09:06:48.181Z,11.10
2019-05-09T09:11:52.559Z,11.20
2019-05-09T09:16:57.806Z,11.20
2019-05-09T09:22:02.831Z,11.40
2019-05-09T09:27:07.959Z,11.50
2019-05-09T09:32:14.023Z,11.60
2019-05-09T09:37:19.072Z,11.60
2019-05-09T09:42:24.195Z,11.60
2019-05-09T09:47:29.327Z,11.50
2019-05-09T09:52:34.662Z,11.50
2019-05-09T09:57:39.667Z,11.40
2019-05-09T10:02:44.826Z,11.40
2019-05-09T10:07:49.926Z,11.20
2019-05-09T10:12:54.845Z,11.20
2019-05-09T10:18:10.287Z,11.20
2019-05-09T10:23:19.003Z,11.30
2019-05-09T10:28:22.077Z,11.30
2019-05-09T10:33:28.064Z,11.30
2019-05-09T10:38:33.160Z,11.40
2019-05-09T10:43:42.746Z,11.40
2019-05-09T10:48:49.418Z,11.40
2019-05-09T10:53:54.375Z,11.50
2019-05-09T10:58:59.500Z,11.40
2019-05-09T11:04:04.704Z,11.50
2019-05-09T11:09:10.036Z,11.60
2019-05-09T11:14:31.653Z,11.70
2019-05-09T11:19:21.696Z,11.90
2019-05-09T11:24:41.424Z,12.00
2019-05-09T11:29:33.588Z,11.90
2019-05-09T11:34:38.624Z,11.90
2019-05-09T11:39:43.585Z,11.90
2019-05-09T11:44:48.555Z,11.80
2019-05-09T11:49:53.519Z,11.70
2019-05-09T11:54:58.560Z,11.70
2019-05-09T12:00:04.931Z,11.70
2019-05-09T12:05:10.447Z,11.80
2019-05-09T12:10:15.652Z,11.70
2019-05-09T12:15:20.756Z,11.70
2019-05-09T12:20:27.743Z,11.70
2019-05-09T12:25:32.602Z,11.70
2019-05-09T12:30:38.032Z,11.70
2019-05-09T12:35:43.235Z,11.60
2019-05-09T12:40:48.346Z,11.70
2019-05-09T12:45:53.275Z,11.90
2019-05-09T12:50:58.959Z,12.00
2019-05-09T12:56:04.291Z,12.30
2019-05-09T13:01:10.323Z,12.60
2019-05-09T13:06:19.570Z,12.90
2019-05-09T13:11:22.182Z,12.90
2019-05-09T13:16:43.960Z,12.80
2019-05-09T13:21:38.376Z,12.60
2019-05-09T13:26:43.854Z,12.60
2019-05-09T13:31:48.891Z,12.80
2019-05-09T13:36:53.958Z,13.00
2019-05-09T13:41:58.933Z,13.10
2019-05-09T13:47:04.065Z,13.10
2019-05-09T13:52:10.194Z,13.30
2019-05-09T13:57:15.324Z,13.50
2019-05-09T14:02:20.503Z,13.80
2019-05-09T14:07:27.761Z,13.90
2019-05-09T14:12:32.061Z,14.10
2019-05-09T14:17:46.027Z,14.20
2019-05-09T14:22:43.760Z,14.40
2019-05-09T14:27:52.108Z,14.30
2019-05-09T14:32:55.496Z,14.40
2019-05-09T14:38:00.938Z,14.30
2019-05-09T14:43:06.093Z,14.30
2019-05-09T14:48:11.056Z,14.40
2019-05-09T14:53:18.063Z,14.20
2019-05-09T14:58:22.707Z,14.20
2019-05-09T15:03:27.880Z,14.20
2019-05-09T15:08:32.931Z,14.10
2019-05-09T15:13:37.916Z,14.00
2019-05-09T15:18:43.023Z,13.90
2019-05-09T15:23:48.301Z,14.00
2019-05-09T15:28:53.260Z,14.00
2019-05-09T15:33:58.327Z,14.10
2019-05-09T15:39:07.865Z,13.90
2019-05-09T15:44:12.050Z,13.90
2019-05-09T15:49:18.346Z,13.70
2019-05-09T15:54:23.532Z,13.70
2019-05-09T15:59:28.656Z,13.60
2019-05-09T16:04:33.759Z,13.50
2019-05-09T16:09:38.894Z,13.50
2019-05-09T16:14:44.084Z,13.40
2019-05-09T16:19:49.072Z,13.30
2019-05-09T16:24:54.103Z,13.30
2019-05-09T16:30:00.240Z,13.20
2019-05-09T16:35:07.747Z,13.20
2019-05-09T16:40:12.391Z,13.20
2019-05-09T16:45:18.353Z,13.20
2019-05-09T16:50:23.515Z,13.10
2019-05-09T16:55:31.382Z,13.00
2019-05-09T17:00:53.940Z,13.00
2019-05-09T17:05:59.035Z,12.90
2019-05-09T17:11:04.168Z,12.80
2019-05-09T17:16:09.342Z,12.80
2019-05-09T17:21:28.161Z,12.70
2019-05-09T17:26:33.244Z,12.60
2019-05-09T17:31:38.483Z,12.60
2019-05-09T17:36:43.419Z,12.50
2019-05-09T17:41:48.519Z,12.40
2019-05-09T17:46:53.655Z,12.40
2019-05-09T17:51:58.676Z,12.30
2019-05-09T17:57:04.511Z,12.20
2019-05-09T18:02:09.643Z,12.10
2019-05-09T18:07:14.743Z,12.00
2019-05-09T18:12:19.835Z,11.90
2019-05-09T18:17:24.930Z,11.80
2019-05-09T18:22:31.153Z,11.70
2019-05-09T18:27:37.883Z,11.60
2019-05-09T18:32:53.787Z,11.50
2019-05-09T18:37:59.439Z,11.50
2019-05-09T18:43:04.835Z,11.40
2019-05-09T18:48:09.820Z,11.30
2019-05-09T18:53:14.876Z,11.20
2019-05-09T18:58:20.079Z,11.00
2019-05-09T19:03:25.269Z,10.90
2019-05-09T19:08:30.304Z,10.70
2019-05-09T19:13:35.470Z,10.60
2019-05-09T19:18:42.119Z,10.50
2019-05-09T19:23:47.315Z,10.40
2019-05-09T19:28:52.294Z,10.30
2019-05-09T19:33:57.272Z,10.20
2019-05-09T19:39:02.377Z,10.10
2019-05-09T19:44:07.566Z,10.00
2019-05-09T19:49:12.690Z,9.90
2019-05-09T19:54:17.743Z,9.70
2019-05-09T19:59:22.865Z,9.60
2019-05-09T20:04:27.947Z,9.40
2019-05-09T20:09:46.741Z,9.40
2019-05-09T20:14:53.527Z,9.20
2019-05-09T20:19:58.556Z,9.00
2019-05-09T20:25:04.959Z,8.90
2019-05-09T20:30:11.331Z,8.80
2019-05-09T20:35:17.327Z,8.80
2019-05-09T20:40:22.627Z,8.70
2019-05-09T20:45:27.972Z,8.70
2019-05-09T20:50:34.223Z,8.60
2019-05-09T20:55:39.613Z,8.40
2019-05-09T21:00:44.978Z,8.30
2019-05-09T21:05:50.208Z,8.20
2019-05-09T21:10:55.529Z,8.10
2019-05-09T21:16:00.907Z,8.00
2019-05-09T21:21:06.194Z,8.00
2019-05-09T21:26:11.491Z,7.90
2019-05-09T21:31:16.792Z,7.80
2019-05-09T21:36:22.743Z,7.70
2019-05-09T21:41:27.795Z,7.60
2019-05-09T21:46:32.922Z,7.60
2019-05-09T21:51:38.967Z,7.50
2019-05-09T21:56:44.021Z,7.40
2019-05-09T22:01:49.306Z,7.30
2019-05-09T22:06:54.411Z,7.20
2019-05-09T22:12:00.699Z,7.10
2019-05-09T22:17:10.460Z,7.10
2019-05-09T22:22:15.511Z,7.10
2019-05-09T22:27:20.639Z,7.10
2019-05-09T22:32:25.758Z,7.10
2019-05-09T22:37:30.950Z,7.00
2019-05-09T22:42:36.438Z,7.00
2019-05-09T22:47:41.571Z,6.90
2019-05-09T22:52:46.875Z,6.90
2019-05-09T22:57:51.831Z,6.80
2019-05-09T23:02:56.928Z,6.80
2019-05-09T23:08:02.032Z,6.70
2019-05-09T23:13:07.051Z,6.70
2019-05-09T23:18:12.112Z,6.60
2019-05-09T23:23:21.743Z,6.60
2019-05-09T23:28:27.643Z,6.60
2019-05-09T23:33:34.423Z,6.60
2019-05-09T23:38:57.636Z,6.60
2019-05-09T23:44:03.982Z,6.60
2019-05-09T23:49:08.932Z,6.60
2019-05-09T23:54:45.091Z,6.50
2019-05-09T23:59:58.663Z,6.50
